Time;durP1;ratioP1;P1;durP2;ratioP2;P2;SDS_P1;SDS_P2;PMS_P1;PMS_P2;Temp;Humidity;BMP_temperature;BMP_pressure;BME280_temperature;BME280_humidity;BME280_pressure;Samples;Min_cycle;Max_cycle;Signal;HPM_P1;HPM_P2
2023/01/08 00:01:08;;;;;;;12.93;2.40;;;;;;;8.50;100.00;100131.47;5039509;28;20076;-38
2023/01/08 00:03:34;;;;;;;13.80;2.20;;;;;;;8.47;100.00;100143.41;5034647;28;20083;-37
2023/01/08 00:06:02;;;;;;;11.60;1.90;;;;;;;8.45;100.00;100134.75;5040623;28;20029;-37
2023/01/08 00:08:28;;;;;;;9.38;2.25;;;;;;;8.45;100.00;100132.06;5051012;28;20071;-38
2023/01/08 00:10:54;;;;;;;14.80;1.48;;;;;;;8.45;100.00;100133.88;5043110;28;20037;-38
2023/01/08 00:13:20;;;;;;;14.77;1.80;;;;;;;8.47;100.00;100132.69;5049939;28;20079;-37
2023/01/08 00:15:45;;;;;;;13.40;2.00;;;;;;;8.49;100.00;100124.47;5034629;28;20419;-38
2023/01/08 00:18:10;;;;;;;9.70;1.30;;;;;;;8.48;100.00;100118.28;5043808;28;20036;-39
2023/01/08 00:20:40;;;;;;;11.10;1.98;;;;;;;8.49;100.00;100116.41;5042290;28;20022;-39
2023/01/08 00:23:14;;;;;;;13.27;1.60;;;;;;;8.47;100.00;100119.28;5031572;28;20340;-39
2023/01/08 00:25:40;;;;;;;9.50;2.03;;;;;;;8.42;100.00;100112.81;5030711;28;20029;-36
2023/01/08 00:28:05;;;;;;;9.48;1.48;;;;;;;8.39;100.00;100100.59;5031657;28;20029;-40
2023/01/08 00:30:31;;;;;;;17.52;2.85;;;;;;;8.38;100.00;100090.88;5030689;28;20491;-39
2023/01/08 00:32:56;;;;;;;9.15;1.85;;;;;;;8.35;100.00;100091.25;5030939;28;20084;-38
2023/01/08 00:35:21;;;;;;;9.10;1.70;;;;;;;8.33;100.00;100093.28;5042616;28;20126;-37
2023/01/08 00:37:50;;;;;;;9.75;2.05;;;;;;;8.27;100.00;100091.34;5050757;28;20048;-38
2023/01/08 00:40:15;;;;;;;8.90;1.85;;;;;;;8.28;100.00;100099.19;5041213;28;20465;-37
2023/01/08 00:42:41;;;;;;;10.52;1.92;;;;;;;8.25;100.00;100088.03;5037320;28;20025;-38
2023/01/08 00:45:06;;;;;;;10.20;2.00;;;;;;;8.22;100.00;100083.03;5039032;28;20029;-38
2023/01/08 00:47:32;;;;;;;15.55;1.70;;;;;;;8.22;100.00;100077.69;5050017;28;20033;-38
2023/01/08 00:49:57;;;;;;;3.63;1.85;;;;;;;8.19;100.00;100081.56;5049346;28;20496;-39
2023/01/08 00:52:23;;;;;;;11.00;1.90;;;;;;;8.16;100.00;100081.91;5040417;28;20509;-37
2023/01/08 00:54:48;;;;;;;11.82;2.35;;;;;;;8.14;100.00;100076.75;5038439;28;20029;-39
2023/01/08 00:57:13;;;;;;;14.77;2.45;;;;;;;8.12;100.00;100078.78;5039479;28;20030;-36
2023/01/08 00:59:39;;;;;;;12.95;2.17;;;;;;;8.10;100.00;100072.75;5036947;28;20064;-38
2023/01/08 01:02:04;;;;;;;17.67;2.70;;;;;;;8.10;100.00;100078.13;5050261;28;20025;-39
2023/01/08 01:04:30;;;;;;;12.90;2.38;;;;;;;8.09;100.00;100075.63;5049873;28;20017;-38
2023/01/08 01:06:55;;;;;;;12.80;2.70;;;;;;;8.07;100.00;100065.09;5042737;28;20068;-38
2023/01/08 01:09:20;;;;;;;15.68;2.67;;;;;;;8.11;100.00;100079.78;5040893;28;20028;-38
2023/01/08 01:11:46;;;;;;;11.50;2.28;;;;;;;8.10;100.00;100078.13;5037653;28;20069;-38
2023/01/08 01:14:11;;;;;;;20.38;2.45;;;;;;;8.13;100.00;100066.19;5029992;28;20056;-36
2023/01/08 01:16:36;;;;;;;13.18;2.28;;;;;;;8.13;100.00;100072.38;5036204;28;20031;-39
2023/01/08 01:19:02;;;;;;;14.43;2.50;;;;;;;8.15;100.00;100072.22;5046262;28;20108;-37
2023/01/08 01:21:29;;;;;;;17.13;2.92;;;;;;;8.17;100.00;100077.41;5034450;28;20029;-39
2023/01/08 01:23:57;;;;;;;13.90;2.30;;;;;;;8.19;100.00;100076.19;5030554;28;20120;-39
2023/01/08 01:26:23;;;;;;;18.17;2.22;;;;;;;8.20;100.00;100082.38;5030295;28;20052;-38
2023/01/08 01:28:50;;;;;;;16.52;2.50;;;;;;;8.20;100.00;100079.69;5032013;28;20025;-37
2023/01/08 01:31:16;;;;;;;17.92;2.67;;;;;;;8.19;100.00;100076.19;5029937;28;20108;-37
2023/01/08 01:33:42;;;;;;;13.52;3.35;;;;;;;8.16;100.00;100076.53;5030245;28;20053;-39
2023/01/08 01:36:10;;;;;;;11.27;2.35;;;;;;;8.12;100.00;100070.72;5034447;28;20022;-36
2023/01/08 01:38:35;;;;;;;13.93;3.08;;;;;;;8.13;100.00;100072.38;5030152;28;20103;-39
2023/01/08 01:41:01;;;;;;;14.57;2.47;;;;;;;8.11;100.00;100081.66;5036309;28;20056;-37
2023/01/08 01:43:41;;;;;;;15.85;2.80;;;;;;;8.11;100.00;100085.16;5045433;28;20038;-38
2023/01/08 01:46:38;;;;;;;12.93;2.50;;;;;;;8.10;100.00;100083.47;5032564;28;20045;-37
2023/01/08 01:49:12;;;;;;;13.30;2.80;;;;;;;8.07;100.00;100074.97;5039647;28;20088;-37
2023/01/08 01:51:47;;;;;;;15.35;2.88;;;;;;;8.05;100.00;100082.38;5033971;28;20053;-39
2023/01/08 01:54:12;;;;;;;14.27;2.45;;;;;;;8.06;100.00;100090.25;5029068;28;20099;-39
2023/01/08 01:56:38;;;;;;;11.98;2.88;;;;;;;8.05;100.00;100095.75;5036713;28;20465;-39
2023/01/08 01:59:03;;;;;;;7.63;2.17;;;;;;;8.04;100.00;100097.63;5047838;28;20495;-38
2023/01/08 02:01:30;;;;;;;8.85;1.73;;;;;;;8.02;100.00;100091.59;5029959;28;20021;-37
2023/01/08 02:03:55;;;;;;;9.63;2.03;;;;;;;8.04;100.00;100083.41;5030018;28;20071;-38
2023/01/08 02:06:36;;;;;;;10.48;1.90;;;;;;;8.03;100.00;100085.25;5042074;28;20017;-37
2023/01/08 02:09:16;;;;;;;11.70;2.17;;;;;;;8.02;100.00;100083.56;5046977;28;20051;-36
2023/01/08 02:12:15;;;;;;;11.80;2.10;;;;;;;8.02;100.00;100080.06;5037981;28;20382;-39
2023/01/08 02:14:57;;;;;;;12.73;1.88;;;;;;;7.97;100.00;100066.38;5029754;28;20033;-39
2023/01/08 02:17:45;;;;;;;5.78;1.80;;;;;;;7.94;100.00;100072.94;5041681;28;20511;-37
2023/01/08 02:20:14;;;;;;;16.70;2.90;;;;;;;7.93;100.00;100062.44;5043313;28;20053;-39
2023/01/08 02:22:45;;;;;;;10.15;1.80;;;;;;;7.91;100.00;100066.09;5029786;28;20031;-37
2023/01/08 02:25:39;;;;;;;7.18;1.45;;;;;;;7.93;100.00;100065.09;5032301;28;20025;-36
2023/01/08 02:28:08;;;;;;;13.20;1.92;;;;;;;7.91;100.00;100071.47;5039706;28;20041;-39
2023/01/08 02:30:34;;;;;;;6.25;1.45;;;;;;;7.92;100.00;100080.31;5043891;28;20024;-36
2023/01/08 02:32:59;;;;;;;8.75;1.95;;;;;;;7.88;100.00;100077.19;5042753;28;20483;-39
2023/01/08 02:35:36;;;;;;;8.05;1.67;;;;;;;7.90;100.00;100068.97;5051332;28;20476;-36
2023/01/08 02:38:03;;;;;;;13.15;2.67;;;;;;;7.91;100.00;100062.59;5051028;28;20311;-39
2023/01/08 02:40:33;;;;;;;12.55;1.77;;;;;;;7.94;100.00;100051.50;5051996;28;20078;-36
2023/01/08 02:43:17;;;;;;;7.32;1.63;;;;;;;7.93;100.00;100065.09;5046279;28;20033;-39
2023/01/08 02:45:46;;;;;;;11.13;1.48;;;;;;;7.93;100.00;100071.28;5052283;28;20224;-39
2023/01/08 02:48:16;;;;;;;14.43;2.33;;;;;;;7.91;100.00;100066.09;5032212;28;20034;-39
2023/01/08 02:50:55;;;;;;;7.18;1.70;;;;;;;7.92;100.00;100058.88;5042056;28;20101;-37
2023/01/08 02:53:24;;;;;;;14.40;1.67;;;;;;;7.87;100.00;100056.78;5053878;28;20431;-36
2023/01/08 02:55:57;;;;;;;6.72;1.40;;;;;;;7.87;100.00;100063.97;5052207;28;20460;-38
2023/01/08 02:58:24;;;;;;;12.15;1.58;;;;;;;7.87;100.00;100064.81;5033787;28;20025;-39
2023/01/08 03:00:50;;;;;;;12.88;1.55;;;;;;;7.85;100.00;100060.66;5035774;28;20465;-36
2023/01/08 03:03:24;;;;;;;13.63;1.80;;;;;;;7.84;100.00;100053.63;5051960;28;20053;-37
2023/01/08 03:05:56;;;;;;;12.48;1.67;;;;;;;7.79;100.00;100053.34;5033817;28;20409;-37
2023/01/08 03:08:22;;;;;;;15.60;1.63;;;;;;;7.75;100.00;100060.09;5035524;28;20028;-37
2023/01/08 03:10:55;;;;;;;15.27;1.92;;;;;;;7.75;100.00;100062.75;5036601;28;20238;-39
2023/01/08 03:13:24;;;;;;;10.57;1.48;;;;;;;7.69;100.00;100053.63;5032522;28;20029;-38
2023/01/08 03:15:53;;;;;;;18.38;1.83;;;;;;;7.68;100.00;100052.75;5033065;28;20033;-38
2023/01/08 03:18:24;;;;;;;16.38;1.63;;;;;;;7.66;100.00;100053.97;5039590;28;20021;-37
2023/01/08 03:20:50;;;;;;;10.88;2.15;;;;;;;7.64;100.00;100039.94;5044069;28;20416;-39
2023/01/08 03:23:17;;;;;;;12.27;1.52;;;;;;;7.62;100.00;100034.75;5048990;28;20036;-39
2023/01/08 03:25:44;;;;;;;16.27;2.40;;;;;;;7.59;100.00;100037.81;5038263;28;20025;-36
2023/01/08 03:28:18;;;;;;;9.65;1.70;;;;;;;7.59;100.00;100037.81;5032755;28;20026;-39
2023/01/08 03:30:44;;;;;;;14.85;2.38;;;;;;;7.58;100.00;100030.78;5035152;28;20587;-38
2023/01/08 03:33:11;;;;;;;15.18;1.50;;;;;;;7.59;100.00;100021.75;5049384;28;20372;-37
2023/01/08 03:35:39;;;;;;;16.25;1.52;;;;;;;7.59;100.00;100023.59;5032729;28;20059;-39
2023/01/08 03:38:10;;;;;;;14.15;2.35;;;;;;;7.53;100.00;100022.47;5031067;28;20033;-36
2023/01/08 03:40:42;;;;;;;18.50;2.33;;;;;;;7.51;100.00;100023.66;5046994;28;20124;-38
2023/01/08 03:43:07;;;;;;;21.73;2.33;;;;;;;7.46;100.00;100021.53;5048630;28;20040;-39
2023/01/08 03:45:34;;;;;;;13.50;1.58;;;;;;;7.43;100.00;100029.94;5034391;28;20030;-39
2023/01/08 03:48:01;;;;;;;13.07;1.50;;;;;;;7.40;100.00;100032.97;5030973;28;20427;-39
2023/01/08 03:50:28;;;;;;;15.30;2.43;;;;;;;7.38;100.00;100029.66;5043012;28;20094;-39
2023/01/08 03:52:53;;;;;;;17.08;2.08;;;;;;;7.40;100.00;100027.63;5030197;28;20307;-39
2023/01/08 03:55:19;;;;;;;13.20;2.75;;;;;;;7.39;100.00;100025.94;5042333;28;20029;-37
2023/01/08 03:57:44;;;;;;;15.15;2.00;;;;;;;7.37;100.00;100025.28;5036047;28;20492;-36
2023/01/08 04:00:10;;;;;;;19.05;2.28;;;;;;;7.33;100.00;100032.03;5037483;28;20041;-37
2023/01/08 04:02:35;;;;;;;20.55;1.85;;;;;;;7.36;100.00;100023.63;5041403;28;20024;-40
2023/01/08 04:05:01;;;;;;;11.23;1.67;;;;;;;7.39;100.00;100023.25;5036488;28;20436;-39
2023/01/08 04:07:26;;;;;;;10.98;1.60;;;;;;;7.40;100.00;100022.28;5032018;28;20029;-39
2023/01/08 04:09:52;;;;;;;20.20;2.20;;;;;;;7.40;100.00;100017.75;5030523;28;20053;-39
2023/01/08 04:12:17;;;;;;;16.25;1.85;;;;;;;7.41;100.00;100018.56;5031169;28;20026;-36
2023/01/08 04:14:42;;;;;;;18.45;1.55;;;;;;;7.44;100.00;100019.03;5045404;28;20024;-40
2023/01/08 04:17:11;;;;;;;30.20;2.97;;;;;;;7.48;100.00;100016.84;5032018;28;20065;-37
2023/01/08 04:19:36;;;;;;;18.52;1.80;;;;;;;7.53;100.00;100009.09;5034979;28;20013;-38
2023/01/08 04:22:01;;;;;;;15.93;1.90;;;;;;;7.55;100.00;100017.75;5038633;28;20040;-39
2023/01/08 04:24:26;;;;;;;11.73;1.25;;;;;;;7.61;100.00;100009.00;5031016;28;20018;-39
2023/01/08 04:26:52;;;;;;;14.23;1.38;;;;;;;7.64;100.00;99999.78;5040261;28;20052;-38
2023/01/08 04:29:17;;;;;;;18.98;1.80;;;;;;;7.63;100.00;100006.94;5031827;28;20021;-37
2023/01/08 04:31:42;;;;;;;16.13;1.50;;;;;;;7.62;100.00;100007.97;5039532;28;20060;-40
2023/01/08 04:34:09;;;;;;;15.73;1.60;;;;;;;7.62;100.00;100010.66;5039624;28;20053;-39
2023/01/08 04:36:34;;;;;;;6.43;1.20;;;;;;;7.59;100.00;100005.66;5049246;28;20739;-38
2023/01/08 04:38:59;;;;;;;15.73;1.65;;;;;;;7.53;100.00;100017.13;5050371;28;20032;-39
2023/01/08 04:41:25;;;;;;;15.32;1.60;;;;;;;7.46;100.00;100006.28;5037675;28;20025;-40
2023/01/08 04:43:50;;;;;;;16.23;1.88;;;;;;;7.40;100.00;100008.88;5030597;28;20032;-38
2023/01/08 04:46:15;;;;;;;13.10;2.15;;;;;;;7.36;100.00;100007.56;5027955;28;20045;-39
2023/01/08 04:48:41;;;;;;;10.95;1.70;;;;;;;7.33;100.00;100018.66;5034591;28;20029;-40
2023/01/08 04:51:07;;;;;;;12.07;1.45;;;;;;;7.25;100.00;100007.00;5030421;28;20061;-39
2023/01/08 04:53:34;;;;;;;17.02;3.28;;;;;;;7.21;100.00;100003.03;5034986;28;20030;-39
2023/01/08 04:56:07;;;;;;;10.38;1.52;;;;;;;7.17;100.00;100011.59;5033750;28;20115;-39
2023/01/08 04:58:33;;;;;;;7.50;1.70;;;;;;;7.14;100.00;100009.28;5048676;28;20033;-39
2023/01/08 05:00:59;;;;;;;9.68;1.65;;;;;;;7.12;100.00;100014.78;5035508;28;20029;-40
2023/01/08 05:03:24;;;;;;;10.52;1.60;;;;;;;7.11;100.00;100013.16;5037034;28;20020;-39
2023/01/08 05:05:50;;;;;;;9.45;1.90;;;;;;;7.11;100.00;100015.81;5043806;28;20032;-40
2023/01/08 05:08:15;;;;;;;6.65;1.80;;;;;;;7.10;100.00;100008.78;5030020;28;20029;-40
2023/01/08 05:10:40;;;;;;;13.88;1.63;;;;;;;7.08;100.00;100002.78;5032206;28;20445;-40
2023/01/08 05:13:06;;;;;;;8.82;1.50;;;;;;;7.03;100.00;100003.34;5034109;28;20096;-38
2023/01/08 05:15:31;;;;;;;11.07;1.50;;;;;;;7.02;100.00;100003.50;5036788;28;20069;-37
2023/01/08 05:18:01;;;;;;;13.10;1.80;;;;;;;7.02;100.00;100003.50;5042369;28;20090;-39
2023/01/08 05:20:27;;;;;;;11.38;1.60;;;;;;;7.01;100.00;100007.19;5034768;28;20025;-38
2023/01/08 05:22:52;;;;;;;14.13;1.50;;;;;;;6.98;100.00;100011.06;5032226;28;20116;-37
2023/01/08 05:25:18;;;;;;;16.92;2.78;;;;;;;6.98;100.00;100004.88;5042575;28;20025;-38
2023/01/08 05:27:43;;;;;;;10.65;1.58;;;;;;;6.98;100.00;100010.25;5029976;28;20045;-39
2023/01/08 05:30:09;;;;;;;8.35;1.67;;;;;;;6.97;100.00;100003.22;5030351;28;20025;-39
2023/01/08 05:32:34;;;;;;;11.45;1.70;;;;;;;6.94;100.00;100011.59;5029988;28;20421;-37
2023/01/08 05:35:00;;;;;;;13.68;1.65;;;;;;;6.92;100.00;100001.06;5038242;28;20037;-37
2023/01/08 05:37:25;;;;;;;19.40;2.40;;;;;;;6.89;100.00;100004.09;5037512;28;20021;-36
2023/01/08 05:39:50;;;;;;;12.88;1.83;;;;;;;6.87;100.00;100002.63;5037522;28;20083;-39
2023/01/08 05:42:16;;;;;;;13.25;1.70;;;;;;;6.87;100.00;100005.28;5041152;28;20028;-38
2023/01/08 05:44:41;;;;;;;15.48;2.22;;;;;;;6.91;100.00;100006.59;5033326;28;20123;-36
2023/01/08 05:47:06;;;;;;;11.88;1.70;;;;;;;6.90;100.00;100002.25;5030354;28;20025;-36
2023/01/08 05:49:32;;;;;;;15.32;1.90;;;;;;;6.88;100.00;100006.97;5030029;28;20030;-38
2023/01/08 05:51:57;;;;;;;13.75;2.15;;;;;;;6.87;100.00;100005.28;5030962;28;20122;-39
2023/01/08 05:54:22;;;;;;;17.10;2.10;;;;;;;6.85;100.00;100001.97;5032129;28;20483;-40
2023/01/08 05:56:48;;;;;;;18.10;2.17;;;;;;;6.85;100.00;100001.97;5029072;28;20386;-39
2023/01/08 05:59:13;;;;;;;11.70;1.60;;;;;;;6.82;100.00;100008.53;5038682;28;20420;-40
2023/01/08 06:01:39;;;;;;;15.13;1.73;;;;;;;6.82;100.00;100006.66;5035601;28;20396;-40
2023/01/08 06:04:04;;;;;;;15.73;2.15;;;;;;;6.79;100.00;100008.84;5029360;28;20412;-39
2023/01/08 06:06:29;;;;;;;17.75;1.90;;;;;;;6.76;100.00;100004.69;5034889;28;20111;-37
2023/01/08 06:08:55;;;;;;;11.93;1.67;;;;;;;6.75;100.00;100007.56;5038558;28;20373;-40
2023/01/08 06:11:21;;;;;;;20.33;1.80;;;;;;;6.72;100.00;100015.94;5031115;28;20082;-38
2023/01/08 06:13:46;;;;;;;14.27;2.08;;;;;;;6.74;100.00;100011.22;5035904;28;20037;-37
2023/01/08 06:16:11;;;;;;;15.73;2.15;;;;;;;6.77;100.00;100017.06;5043000;28;20029;-39
2023/01/08 06:18:37;;;;;;;10.32;1.77;;;;;;;6.79;100.00;100012.38;5036891;28;20075;-39
2023/01/08 06:21:03;;;;;;;43.20;4.65;;;;;;;6.80;100.00;100006.00;5045988;28;20029;-36
2023/01/08 06:23:29;;;;;;;11.13;1.90;;;;;;;6.81;100.00;100006.84;5036913;28;20095;-38
2023/01/08 06:25:56;;;;;;;23.67;2.20;;;;;;;6.78;100.00;100007.19;5042054;28;20025;-40
2023/01/08 06:28:22;;;;;;;25.20;1.85;;;;;;;6.80;100.00;99998.00;5031819;28;20488;-37
2023/01/08 06:30:48;;;;;;;13.80;2.45;;;;;;;6.83;100.00;99999.47;5038567;28;20045;-39
2023/01/08 06:33:14;;;;;;;11.95;1.67;;;;;;;6.84;100.00;100002.97;5038583;28;20056;-40
2023/01/08 06:35:40;;;;;;;20.25;2.03;;;;;;;6.79;100.00;100004.34;5029955;28;20049;-39
2023/01/08 06:38:05;;;;;;;16.25;1.95;;;;;;;6.79;100.00;100004.34;5047278;28;20068;-37
2023/01/08 06:40:30;;;;;;;17.75;2.65;;;;;;;6.79;100.00;100007.03;5031483;28;20037;-39
2023/01/08 06:43:00;;;;;;;22.00;2.60;;;;;;;6.82;100.00;99998.66;5038148;28;20365;-39
2023/01/08 06:45:26;;;;;;;17.95;2.13;;;;;;;6.81;100.00;99994.28;5049847;28;20415;-39
2023/01/08 06:47:51;;;;;;;16.58;2.20;;;;;;;6.81;100.00;99991.63;5042909;28;20109;-40
2023/01/08 06:50:16;;;;;;;18.45;2.33;;;;;;;6.80;100.00;100000.66;5029413;28;20124;-39
2023/01/08 06:52:41;;;;;;;21.17;2.42;;;;;;;6.80;100.00;99994.47;5029710;28;20067;-39
2023/01/08 06:55:07;;;;;;;18.50;2.08;;;;;;;6.78;100.00;99989.31;5040347;28;20422;-37
2023/01/08 06:57:33;;;;;;;15.50;1.85;;;;;;;6.76;100.00;99982.47;5049883;28;20063;-37
2023/01/08 06:59:58;;;;;;;20.73;3.13;;;;;;;6.71;100.00;99991.00;5042577;28;20036;-39
2023/01/08 07:02:23;;;;;;;17.88;2.55;;;;;;;6.72;100.00;99983.84;5044568;28;20056;-37
2023/01/08 07:04:49;;;;;;;22.88;2.00;;;;;;;6.69;100.00;99986.84;5034575;28;20060;-36
2023/01/08 07:07:14;;;;;;;15.40;2.15;;;;;;;6.68;100.00;99979.84;5041914;28;20029;-40
2023/01/08 07:09:43;;;;;;;11.27;1.90;;;;;;;6.65;100.00;99975.69;5030866;28;20029;-39
2023/01/08 07:12:12;;;;;;;20.70;2.47;;;;;;;6.62;100.00;99973.38;5028146;28;20539;-38
2023/01/08 07:14:38;;;;;;;17.35;2.30;;;;;;;6.60;100.00;99978.06;5042023;28;20526;-38
2023/01/08 07:17:03;;;;;;;21.35;2.20;;;;;;;6.59;100.00;99971.06;5040290;28;20086;-37
2023/01/08 07:19:30;;;;;;;15.18;1.85;;;;;;;6.56;100.00;99969.56;5041250;28;20158;-38
2023/01/08 07:21:55;;;;;;;15.23;2.22;;;;;;;6.54;100.00;99968.09;5032835;28;20064;-40
2023/01/08 07:24:20;;;;;;;11.02;1.80;;;;;;;6.54;100.00;99963.56;5035249;28;20484;-39
2023/01/08 07:26:46;;;;;;;17.73;2.28;;;;;;;6.53;100.00;99959.25;5038149;28;20044;-38
2023/01/08 07:29:11;;;;;;;16.73;1.90;;;;;;;6.52;100.00;99964.75;5042691;28;20025;-38
2023/01/08 07:31:37;;;;;;;15.82;1.90;;;;;;;6.52;100.00;99962.09;5033275;28;20040;-40
2023/01/08 07:34:02;;;;;;;13.15;1.88;;;;;;;6.53;100.00;99963.72;5041622;28;20045;-39
2023/01/08 07:36:27;;;;;;;19.27;2.00;;;;;;;6.53;100.00;99967.25;5033550;28;20033;-39
2023/01/08 07:38:53;;;;;;;20.02;2.38;;;;;;;6.54;100.00;99963.56;5030824;28;20207;-37
2023/01/08 07:41:18;;;;;;;19.90;2.55;;;;;;;6.53;100.00;99972.59;5041468;28;20020;-39
2023/01/08 07:43:46;;;;;;;18.08;2.40;;;;;;;6.52;100.00;99970.09;5035342;28;20041;-40
2023/01/08 07:46:11;;;;;;;22.17;2.85;;;;;;;6.51;100.00;99968.44;5030262;28;20026;-37
2023/01/08 07:48:36;;;;;;;23.30;2.67;;;;;;;6.49;100.00;99965.13;5036714;28;20029;-37
2023/01/08 07:51:04;;;;;;;12.05;2.08;;;;;;;6.50;100.00;99969.44;5037157;28;20512;-39
2023/01/08 07:53:30;;;;;;;23.80;2.15;;;;;;;6.53;100.00;99967.25;5033350;28;20055;-39
2023/01/08 07:56:03;;;;;;;20.23;2.35;;;;;;;6.51;100.00;99971.13;5040913;28;20037;-37
2023/01/08 07:58:29;;;;;;;14.73;1.90;;;;;;;6.51;100.00;99971.13;5046179;28;20045;-40
2023/01/08 08:00:55;;;;;;;18.55;2.63;;;;;;;6.50;100.00;99972.13;5032735;28;20288;-37
2023/01/08 08:03:20;;;;;;;13.98;2.00;;;;;;;6.52;100.00;99975.44;5032449;28;20111;-39
2023/01/08 08:05:45;;;;;;;26.17;2.60;;;;;;;6.43;100.00;99961.31;5044841;28;20039;-39
2023/01/08 08:08:12;;;;;;;20.08;2.42;;;;;;;6.42;100.00;99954.28;5033904;28;20123;-38
2023/01/08 08:10:39;;;;;;;24.77;2.55;;;;;;;6.41;100.00;99951.81;5035537;28;20033;-37
2023/01/08 08:13:04;;;;;;;18.05;2.40;;;;;;;6.40;100.00;99960.81;5033358;28;20252;-39
2023/01/08 08:15:29;;;;;;;16.63;2.47;;;;;;;6.39;100.00;99954.63;5029036;28;20041;-36
2023/01/08 08:17:55;;;;;;;11.85;2.35;;;;;;;6.36;100.00;99966.50;5037846;28;20043;-38
2023/01/08 08:20:20;;;;;;;24.20;2.65;;;;;;;6.34;100.00;99957.84;5042455;28;20037;-40
2023/01/08 08:22:45;;;;;;;15.55;1.83;;;;;;;6.34;100.00;99946.31;5032712;28;20469;-40
2023/01/08 08:25:13;;;;;;;16.55;2.30;;;;;;;6.32;100.00;99941.16;5033698;28;20028;-40
2023/01/08 08:27:39;;;;;;;;;;;;;;;6.33;100.00;99944.66;5035487;28;20037;-40
2023/01/08 08:30:05;;;;;;;17.20;2.33;;;;;;;6.32;100.00;99943.84;5039748;28;19924;-39
2023/01/08 08:32:30;;;;;;;13.43;2.08;;;;;;;6.37;100.00;99938.81;5034164;28;20029;-39
2023/01/08 08:34:55;;;;;;;13.23;1.85;;;;;;;6.43;100.00;99923.06;5040368;28;20111;-38
2023/01/08 08:37:21;;;;;;;14.63;2.17;;;;;;;6.51;100.00;99934.53;5026226;28;20544;-40
2023/01/08 08:39:46;;;;;;;19.23;2.03;;;;;;;6.82;100.00;99923.75;5035163;28;20433;-37
2023/01/08 08:42:11;;;;;;;24.38;2.53;;;;;;;7.29;100.00;99931.69;5031215;28;20039;-40
2023/01/08 08:44:37;;;;;;;12.75;2.13;;;;;;;7.41;100.00;99916.84;5035124;28;20112;-40
2023/01/08 08:47:06;;;;;;;20.52;2.40;;;;;;;7.55;100.00;99918.69;5029182;28;20131;-37
2023/01/08 08:49:31;;;;;;;14.20;2.38;;;;;;;7.95;100.00;99907.66;5039694;28;20029;-39
2023/01/08 08:51:57;;;;;;;12.93;1.73;;;;;;;8.03;100.00;99913.75;5037881;28;20029;-39
2023/01/08 08:54:22;;;;;;;13.45;2.13;;;;;;;8.32;100.00;99906.63;5028066;28;20317;-40
2023/01/08 08:56:48;;;;;;;14.50;1.52;;;;;;;8.27;100.00;99904.53;5037720;28;20025;-39
2023/01/08 08:59:13;;;;;;;16.05;2.63;;;;;;;8.36;100.00;99897.19;5036383;28;20029;-39
2023/01/08 09:01:38;;;;;;;10.88;1.70;;;;;;;8.20;100.00;99889.41;5031856;28;20029;-38
2023/01/08 09:04:04;;;;;;;11.73;2.80;;;;;;;8.12;100.00;99891.16;5032657;28;20037;-39
2023/01/08 09:06:30;;;;;;;16.75;1.83;;;;;;;8.18;100.00;99886.06;5033793;28;20037;-37
2023/01/08 09:08:56;;;;;;;20.10;2.13;;;;;;;8.27;100.00;99887.63;5040162;28;20052;-39
2023/01/08 09:11:21;;;;;;;12.63;1.88;;;;;;;8.42;100.00;99875.00;5046241;28;20112;-37
2023/01/08 09:13:46;;;;;;;15.48;2.30;;;;;;;8.33;100.00;99885.00;5034109;28;20759;-40
2023/01/08 09:16:12;;;;;;;18.50;2.33;;;;;;;8.42;100.00;99876.84;5044361;28;20033;-41
2023/01/08 09:18:37;;;;;;;20.80;2.30;;;;;;;8.53;100.00;99873.66;5041266;28;20029;-37
2023/01/08 09:21:04;;;;;;;19.77;2.67;;;;;;;8.50;100.00;99877.53;5042899;28;20067;-39
2023/01/08 09:23:30;;;;;;;23.30;2.40;;;;;;;8.34;100.00;99869.72;5044516;28;20033;-40
2023/01/08 09:25:59;;;;;;;15.88;1.75;;;;;;;8.39;100.00;99875.38;5034819;28;20107;-40
2023/01/08 09:28:24;;;;;;;19.65;2.05;;;;;;;8.39;100.00;99872.69;5043780;28;20025;-40
2023/01/08 09:30:50;;;;;;;16.85;1.95;;;;;;;8.35;100.00;99877.59;5040970;28;20037;-39
2023/01/08 09:33:15;;;;;;;12.88;1.60;;;;;;;8.63;100.00;99889.44;5030676;28;20051;-39
2023/01/08 09:35:42;;;;;;;12.13;1.67;;;;;;;8.64;100.00;99877.69;5030634;28;20051;-38
2023/01/08 09:38:08;;;;;;;14.20;2.10;;;;;;;8.72;100.00;99873.00;5037872;28;20053;-38
2023/01/08 09:40:52;;;;;;;18.75;2.28;;;;;;;8.94;100.00;99876.47;5043903;28;20053;-39
2023/01/08 09:43:20;;;;;;;17.15;2.15;;;;;;;9.10;100.00;99877.22;5046033;28;20476;-36
2023/01/08 09:45:48;;;;;;;;;;;;;;;9.07;100.00;99874.94;5041890;28;20672;-38
2023/01/08 09:48:16;;;;;;;10.40;1.33;;;;;;;9.20;100.00;99875.00;5043503;28;21239;-37
2023/01/08 09:50:41;;;;;;;15.32;1.60;;;;;;;9.47;100.00;99876.00;5039965;28;20044;-37
2023/01/08 09:53:14;;;;;;;21.40;2.13;;;;;;;9.63;100.00;99875.66;5040316;28;20404;-40
2023/01/08 09:55:41;;;;;;;11.15;1.73;;;;;;;9.51;100.00;99871.06;5040896;28;20116;-40
2023/01/08 09:58:37;;;;;;;18.70;2.65;;;;;;;9.47;100.00;99864.44;5038863;28;20033;-38
2023/01/08 10:01:04;;;;;;;16.48;1.80;;;;;;;9.29;100.00;99878.38;5038807;28;20049;-38
2023/01/08 10:03:39;;;;;;;21.38;2.42;;;;;;;9.21;100.00;99876.66;5041173;28;20112;-37
2023/01/08 10:06:10;;;;;;;15.13;2.10;;;;;;;9.51;100.00;99869.22;5040648;28;20040;-41
2023/01/08 10:08:35;;;;;;;16.45;2.63;;;;;;;9.39;100.00;99868.91;5039077;28;21089;-37
2023/01/08 10:11:01;;;;;;;19.52;2.40;;;;;;;9.60;100.00;99861.81;5042597;28;20033;-39
2023/01/08 10:13:27;;;;;;;18.00;2.38;;;;;;;9.43;100.00;99870.19;5044056;28;20047;-37
2023/01/08 10:15:52;;;;;;;13.63;2.47;;;;;;;8.96;100.00;99876.28;5043752;28;20037;-39
2023/01/08 10:18:18;;;;;;;14.15;2.22;;;;;;;8.91;100.00;99860.78;5042116;28;20032;-38
2023/01/08 10:20:43;;;;;;;20.98;2.50;;;;;;;8.71;100.00;99870.50;5042215;28;20029;-37
2023/01/08 10:23:10;;;;;;;11.48;2.17;;;;;;;8.67;100.00;99885.34;5045860;28;20453;-39
2023/01/08 10:25:54;;;;;;;14.18;2.40;;;;;;;8.61;100.00;99870.00;5044982;28;20694;-38
2023/01/08 10:28:24;;;;;;;14.80;2.30;;;;;;;8.64;100.00;99865.09;5042073;28;20668;-40
2023/01/08 10:30:52;;;;;;;18.67;3.15;;;;;;;8.60;100.00;99865.69;5042117;28;20029;-40
2023/01/08 10:33:24;;;;;;;17.20;2.33;;;;;;;8.59;100.00;99861.34;5045684;28;20111;-39
2023/01/08 10:35:56;;;;;;;13.77;2.22;;;;;;;8.71;100.00;99863.28;5044295;28;21327;-39
2023/01/08 10:38:26;;;;;;;17.42;2.88;;;;;;;8.76;100.00;99857.34;5044046;28;20037;-38
2023/01/08 10:40:51;;;;;;;14.27;2.45;;;;;;;8.95;100.00;99853.16;5029621;28;20111;-39
2023/01/08 10:43:19;;;;;;;8.07;1.85;;;;;;;9.17;100.00;99833.28;5039838;28;20578;-38
2023/01/08 10:46:20;;;;;;;12.10;1.92;;;;;;;9.32;100.00;99825.13;5039071;28;20091;-36
2023/01/08 10:48:50;;;;;;;15.45;2.30;;;;;;;9.47;100.00;99838.38;5032026;28;20053;-40
2023/01/08 10:51:18;;;;;;;13.93;2.00;;;;;;;9.49;100.00;99846.25;5039939;28;20031;-36
2023/01/08 10:53:43;;;;;;;16.30;2.58;;;;;;;9.26;100.00;99831.25;5043331;28;20041;-40
2023/01/08 10:56:21;;;;;;;16.10;2.00;;;;;;;9.53;100.00;99831.38;5044095;28;20069;-40
2023/01/08 10:58:46;;;;;;;15.15;2.38;;;;;;;9.18;100.00;99839.47;5044161;28;20570;-40
2023/01/08 11:01:26;;;;;;;14.52;1.90;;;;;;;9.16;100.00;99831.63;5045792;28;20030;-40
2023/01/08 11:03:54;;;;;;;19.95;1.88;;;;;;;9.13;100.00;99820.44;5042025;28;20491;-40
2023/01/08 11:06:30;;;;;;;20.88;3.08;;;;;;;9.05;100.00;99812.56;5042609;28;20033;-40
2023/01/08 11:09:00;;;;;;;19.40;2.28;;;;;;;9.00;100.00;99815.81;5043580;28;20036;-39
2023/01/08 11:11:36;;;;;;;21.00;2.95;;;;;;;9.04;100.00;99811.72;5043640;28;20068;-40
2023/01/08 11:14:11;;;;;;;9.00;1.90;;;;;;;9.05;100.00;99812.56;5044507;28;20045;-40
2023/01/08 11:16:38;;;;;;;16.17;2.67;;;;;;;9.14;100.00;99812.22;5045254;28;20033;-40
2023/01/08 11:19:04;;;;;;;17.07;2.10;;;;;;;9.40;100.00;99810.66;5045464;28;20033;-39
2023/01/08 11:21:31;;;;;;;11.18;1.80;;;;;;;9.32;100.00;99800.09;5044010;28;20311;-39
2023/01/08 11:24:20;;;;;;;11.63;2.03;;;;;;;9.39;100.00;99798.28;5045067;28;20029;-40